sensor_id;sensor_type;location;lat;lon;timestamp;P1;durP1;ratioP1;P2;durP2;ratioP2
8819;SDS011;4446;50.876;4.736;2023-07-31T00:01:25;7.10;;;3.78;;
8819;SDS011;4446;50.876;4.736;2023-07-31T00:03:52;8.18;;;3.45;;
8819;SDS011;4446;50.876;4.736;2023-07-31T00:06:20;11.40;;;4.00;;
8819;SDS011;4446;50.876;4.736;2023-07-31T00:08:47;5.53;;;3.42;;
8819;SDS011;4446;50.876;4.736;2023-07-31T00:11:14;6.43;;;3.95;;
8819;SDS011;4446;50.876;4.736;2023-07-31T00:13:42;8.90;;;4.10;;
8819;SDS011;4446;50.876;4.736;2023-07-31T00:16:08;5.68;;;3.42;;
8819;SDS011;4446;50.876;4.736;2023-07-31T00:18:35;8.10;;;3.80;;
8819;SDS011;4446;50.876;4.736;2023-07-31T00:21:02;7.28;;;4.15;;
8819;SDS011;4446;50.876;4.736;2023-07-31T00:23:31;8.93;;;3.60;;
8819;SDS011;4446;50.876;4.736;2023-07-31T00:25:58;6.57;;;3.65;;
8819;SDS011;4446;50.876;4.736;2023-07-31T00:28:24;8.18;;;3.83;;
8819;SDS011;4446;50.876;4.736;2023-07-31T00:30:52;10.50;;;4.15;;
8819;SDS011;4446;50.876;4.736;2023-07-31T00:33:19;11.25;;;3.80;;
8819;SDS011;4446;50.876;4.736;2023-07-31T00:35:46;5.00;;;3.50;;
8819;SDS011;4446;50.876;4.736;2023-07-31T00:38:14;8.32;;;3.92;;
8819;SDS011;4446;50.876;4.736;2023-07-31T00:40:42;9.68;;;4.20;;
8819;SDS011;4446;50.876;4.736;2023-07-31T00:43:09;6.45;;;3.22;;
8819;SDS011;4446;50.876;4.736;2023-07-31T00:45:36;8.13;;;3.38;;
8819;SDS011;4446;50.876;4.736;2023-07-31T00:48:04;8.60;;;3.65;;
8819;SDS011;4446;50.876;4.736;2023-07-31T00:50:32;6.70;;;3.17;;
8819;SDS011;4446;50.876;4.736;2023-07-31T00:52:59;6.70;;;3.22;;
8819;SDS011;4446;50.876;4.736;2023-07-31T00:55:26;7.47;;;3.15;;
8819;SDS011;4446;50.876;4.736;2023-07-31T00:57:55;7.40;;;3.65;;
8819;SDS011;4446;50.876;4.736;2023-07-31T01:00:22;6.90;;;3.53;;
8819;SDS011;4446;50.876;4.736;2023-07-31T01:02:49;5.82;;;3.22;;
8819;SDS011;4446;50.876;4.736;2023-07-31T01:05:18;8.93;;;3.28;;
8819;SDS011;4446;50.876;4.736;2023-07-31T01:07:56;6.53;;;3.25;;
8819;SDS011;4446;50.876;4.736;2023-07-31T01:10:33;6.47;;;3.55;;
8819;SDS011;4446;50.876;4.736;2023-07-31T01:13:04;5.95;;;3.47;;
8819;SDS011;4446;50.876;4.736;2023-07-31T01:15:32;7.03;;;3.45;;
8819;SDS011;4446;50.876;4.736;2023-07-31T01:17:59;3.78;;;2.85;;
8819;SDS011;4446;50.876;4.736;2023-07-31T01:20:26;5.85;;;3.10;;
8819;SDS011;4446;50.876;4.736;2023-07-31T01:26:01;6.32;;;3.30;;
8819;SDS011;4446;50.876;4.736;2023-07-31T01:28:33;6.00;;;3.05;;
8819;SDS011;4446;50.876;4.736;2023-07-31T01:31:07;8.02;;;3.47;;
8819;SDS011;4446;50.876;4.736;2023-07-31T01:33:36;5.63;;;3.05;;
8819;SDS011;4446;50.876;4.736;2023-07-31T01:36:04;5.68;;;2.92;;
8819;SDS011;4446;50.876;4.736;2023-07-31T01:38:32;5.28;;;3.28;;
8819;SDS011;4446;50.876;4.736;2023-07-31T01:41:00;8.50;;;3.00;;
8819;SDS011;4446;50.876;4.736;2023-07-31T01:43:27;4.93;;;2.85;;
8819;SDS011;4446;50.876;4.736;2023-07-31T01:45:54;7.07;;;3.17;;
8819;SDS011;4446;50.876;4.736;2023-07-31T01:48:21;5.65;;;3.17;;
8819;SDS011;4446;50.876;4.736;2023-07-31T01:50:48;6.35;;;3.40;;
8819;SDS011;4446;50.876;4.736;2023-07-31T01:53:15;5.43;;;3.20;;
8819;SDS011;4446;50.876;4.736;2023-07-31T01:55:42;4.50;;;3.03;;
8819;SDS011;4446;50.876;4.736;2023-07-31T01:58:10;8.23;;;3.35;;
8819;SDS011;4446;50.876;4.736;2023-07-31T02:00:37;5.47;;;3.17;;
8819;SDS011;4446;50.876;4.736;2023-07-31T02:03:04;6.82;;;3.08;;
8819;SDS011;4446;50.876;4.736;2023-07-31T02:05:31;7.53;;;3.60;;
8819;SDS011;4446;50.876;4.736;2023-07-31T02:07:58;7.97;;;4.10;;
8819;SDS011;4446;50.876;4.736;2023-07-31T02:10:24;6.05;;;4.03;;
8819;SDS011;4446;50.876;4.736;2023-07-31T02:12:51;6.05;;;3.10;;
8819;SDS011;4446;50.876;4.736;2023-07-31T02:15:20;8.27;;;3.45;;
8819;SDS011;4446;50.876;4.736;2023-07-31T02:17:47;4.78;;;3.30;;
8819;SDS011;4446;50.876;4.736;2023-07-31T02:20:13;4.57;;;3.30;;
8819;SDS011;4446;50.876;4.736;2023-07-31T02:22:40;6.75;;;3.60;;
8819;SDS011;4446;50.876;4.736;2023-07-31T02:25:08;6.25;;;3.47;;
8819;SDS011;4446;50.876;4.736;2023-07-31T02:27:34;7.07;;;3.63;;
8819;SDS011;4446;50.876;4.736;2023-07-31T02:30:01;6.45;;;3.38;;
8819;SDS011;4446;50.876;4.736;2023-07-31T02:32:30;6.97;;;3.78;;
8819;SDS011;4446;50.876;4.736;2023-07-31T02:34:57;7.95;;;3.55;;
8819;SDS011;4446;50.876;4.736;2023-07-31T02:37:24;3.83;;;2.97;;
8819;SDS011;4446;50.876;4.736;2023-07-31T02:39:53;6.78;;;3.42;;
8819;SDS011;4446;50.876;4.736;2023-07-31T02:42:20;5.10;;;3.65;;
8819;SDS011;4446;50.876;4.736;2023-07-31T02:44:47;6.90;;;3.40;;
8819;SDS011;4446;50.876;4.736;2023-07-31T02:47:16;7.28;;;3.85;;
8819;SDS011;4446;50.876;4.736;2023-07-31T02:49:44;5.43;;;3.47;;
8819;SDS011;4446;50.876;4.736;2023-07-31T02:52:11;4.88;;;3.10;;
8819;SDS011;4446;50.876;4.736;2023-07-31T02:54:38;6.22;;;3.50;;
8819;SDS011;4446;50.876;4.736;2023-07-31T02:57:05;5.07;;;3.15;;
8819;SDS011;4446;50.876;4.736;2023-07-31T02:59:32;6.38;;;4.05;;
8819;SDS011;4446;50.876;4.736;2023-07-31T03:01:59;6.28;;;3.28;;
8819;SDS011;4446;50.876;4.736;2023-07-31T03:04:26;6.07;;;3.30;;
8819;SDS011;4446;50.876;4.736;2023-07-31T03:06:54;7.40;;;3.55;;
8819;SDS011;4446;50.876;4.736;2023-07-31T03:09:21;5.38;;;3.88;;
8819;SDS011;4446;50.876;4.736;2023-07-31T03:11:48;6.15;;;3.28;;
8819;SDS011;4446;50.876;4.736;2023-07-31T03:14:15;5.88;;;3.40;;
8819;SDS011;4446;50.876;4.736;2023-07-31T03:16:42;5.28;;;3.00;;
8819;SDS011;4446;50.876;4.736;2023-07-31T03:19:09;4.88;;;2.88;;
8819;SDS011;4446;50.876;4.736;2023-07-31T03:21:36;6.18;;;3.83;;
8819;SDS011;4446;50.876;4.736;2023-07-31T03:24:05;5.00;;;3.40;;
8819;SDS011;4446;50.876;4.736;2023-07-31T03:26:32;8.88;;;3.28;;
8819;SDS011;4446;50.876;4.736;2023-07-31T03:28:59;5.03;;;3.03;;
8819;SDS011;4446;50.876;4.736;2023-07-31T03:31:26;3.75;;;2.92;;
8819;SDS011;4446;50.876;4.736;2023-07-31T03:33:53;5.68;;;3.15;;
8819;SDS011;4446;50.876;4.736;2023-07-31T03:36:19;5.55;;;3.10;;
8819;SDS011;4446;50.876;4.736;2023-07-31T03:38:46;4.78;;;3.00;;
8819;SDS011;4446;50.876;4.736;2023-07-31T03:41:15;6.65;;;3.75;;
8819;SDS011;4446;50.876;4.736;2023-07-31T03:43:42;5.40;;;3.40;;
8819;SDS011;4446;50.876;4.736;2023-07-31T03:46:09;4.53;;;2.78;;
8819;SDS011;4446;50.876;4.736;2023-07-31T03:48:36;4.97;;;3.00;;
8819;SDS011;4446;50.876;4.736;2023-07-31T03:51:03;5.40;;;3.13;;
8819;SDS011;4446;50.876;4.736;2023-07-31T03:53:30;6.45;;;3.20;;
8819;SDS011;4446;50.876;4.736;2023-07-31T03:55:57;6.18;;;2.78;;
8819;SDS011;4446;50.876;4.736;2023-07-31T03:58:25;4.30;;;2.75;;
8819;SDS011;4446;50.876;4.736;2023-07-31T04:00:52;3.90;;;2.70;;
8819;SDS011;4446;50.876;4.736;2023-07-31T04:03:19;6.10;;;3.08;;
8819;SDS011;4446;50.876;4.736;2023-07-31T04:05:46;8.52;;;3.65;;
8819;SDS011;4446;50.876;4.736;2023-07-31T04:08:13;5.38;;;3.10;;
8819;SDS011;4446;50.876;4.736;2023-07-31T04:10:40;4.25;;;2.85;;
8819;SDS011;4446;50.876;4.736;2023-07-31T04:13:07;4.38;;;2.97;;
8819;SDS011;4446;50.876;4.736;2023-07-31T04:15:36;4.85;;;3.30;;
8819;SDS011;4446;50.876;4.736;2023-07-31T04:18:03;4.78;;;3.03;;
8819;SDS011;4446;50.876;4.736;2023-07-31T04:20:31;5.88;;;3.53;;
8819;SDS011;4446;50.876;4.736;2023-07-31T04:22:58;5.93;;;3.63;;
8819;SDS011;4446;50.876;4.736;2023-07-31T04:25:24;5.30;;;3.35;;
8819;SDS011;4446;50.876;4.736;2023-07-31T04:27:51;4.63;;;3.33;;
8819;SDS011;4446;50.876;4.736;2023-07-31T04:30:19;6.03;;;3.67;;
8819;SDS011;4446;50.876;4.736;2023-07-31T04:32:47;5.00;;;3.40;;
8819;SDS011;4446;50.876;4.736;2023-07-31T04:35:14;6.13;;;3.65;;
8819;SDS011;4446;50.876;4.736;2023-07-31T04:37:41;4.05;;;3.50;;
8819;SDS011;4446;50.876;4.736;2023-07-31T04:40:10;4.30;;;3.38;;
8819;SDS011;4446;50.876;4.736;2023-07-31T04:42:37;5.28;;;3.22;;
8819;SDS011;4446;50.876;4.736;2023-07-31T04:45:04;5.15;;;3.72;;
8819;SDS011;4446;50.876;4.736;2023-07-31T04:47:34;5.88;;;2.78;;
8819;SDS011;4446;50.876;4.736;2023-07-31T04:50:02;4.47;;;3.50;;
8819;SDS011;4446;50.876;4.736;2023-07-31T04:52:29;5.40;;;3.25;;
8819;SDS011;4446;50.876;4.736;2023-07-31T04:54:56;6.03;;;3.50;;
8819;SDS011;4446;50.876;4.736;2023-07-31T04:57:23;5.90;;;3.53;;
8819;SDS011;4446;50.876;4.736;2023-07-31T04:59:50;4.00;;;2.92;;
8819;SDS011;4446;50.876;4.736;2023-07-31T05:02:17;6.93;;;3.25;;
8819;SDS011;4446;50.876;4.736;2023-07-31T05:04:44;6.78;;;3.30;;
8819;SDS011;4446;50.876;4.736;2023-07-31T05:07:13;5.43;;;3.15;;
8819;SDS011;4446;50.876;4.736;2023-07-31T05:09:40;6.05;;;3.35;;
8819;SDS011;4446;50.876;4.736;2023-07-31T05:12:08;4.95;;;3.35;;
8819;SDS011;4446;50.876;4.736;2023-07-31T05:14:35;5.32;;;3.45;;
8819;SDS011;4446;50.876;4.736;2023-07-31T05:17:02;5.68;;;3.53;;
8819;SDS011;4446;50.876;4.736;2023-07-31T05:19:29;3.75;;;2.78;;
8819;SDS011;4446;50.876;4.736;2023-07-31T05:21:56;7.93;;;3.10;;
8819;SDS011;4446;50.876;4.736;2023-07-31T05:24:25;4.55;;;3.30;;
8819;SDS011;4446;50.876;4.736;2023-07-31T05:26:52;5.55;;;3.90;;
8819;SDS011;4446;50.876;4.736;2023-07-31T05:29:19;3.60;;;2.95;;
8819;SDS011;4446;50.876;4.736;2023-07-31T05:31:46;6.05;;;3.63;;
8819;SDS011;4446;50.876;4.736;2023-07-31T05:34:13;5.35;;;3.03;;
8819;SDS011;4446;50.876;4.736;2023-07-31T05:36:40;6.80;;;3.15;;
8819;SDS011;4446;50.876;4.736;2023-07-31T05:39:07;4.97;;;3.63;;
8819;SDS011;4446;50.876;4.736;2023-07-31T05:41:36;6.07;;;3.40;;
8819;SDS011;4446;50.876;4.736;2023-07-31T05:44:03;3.67;;;3.00;;
8819;SDS011;4446;50.876;4.736;2023-07-31T05:46:30;3.40;;;2.95;;
8819;SDS011;4446;50.876;4.736;2023-07-31T05:48:57;4.00;;;3.42;;
8819;SDS011;4446;50.876;4.736;2023-07-31T05:51:26;5.25;;;3.60;;
8819;SDS011;4446;50.876;4.736;2023-07-31T05:53:53;6.00;;;3.40;;
8819;SDS011;4446;50.876;4.736;2023-07-31T05:56:20;6.32;;;3.22;;
8819;SDS011;4446;50.876;4.736;2023-07-31T05:58:48;5.40;;;2.88;;
8819;SDS011;4446;50.876;4.736;2023-07-31T06:01:15;4.53;;;3.22;;
8819;SDS011;4446;50.876;4.736;2023-07-31T06:03:43;4.47;;;3.13;;
8819;SDS011;4446;50.876;4.736;2023-07-31T06:06:10;5.63;;;3.20;;
8819;SDS011;4446;50.876;4.736;2023-07-31T06:08:38;7.03;;;3.15;;
8819;SDS011;4446;50.876;4.736;2023-07-31T06:11:06;4.72;;;3.08;;
8819;SDS011;4446;50.876;4.736;2023-07-31T06:13:34;6.07;;;4.25;;
8819;SDS011;4446;50.876;4.736;2023-07-31T06:16:02;4.53;;;3.10;;
8819;SDS011;4446;50.876;4.736;2023-07-31T06:18:31;5.68;;;3.22;;
8819;SDS011;4446;50.876;4.736;2023-07-31T06:20:58;6.07;;;3.25;;
8819;SDS011;4446;50.876;4.736;2023-07-31T06:23:25;4.95;;;3.63;;
8819;SDS011;4446;50.876;4.736;2023-07-31T06:25:52;5.88;;;3.33;;
8819;SDS011;4446;50.876;4.736;2023-07-31T06:28:19;3.97;;;3.00;;
8819;SDS011;4446;50.876;4.736;2023-07-31T06:30:46;5.07;;;3.20;;
8819;SDS011;4446;50.876;4.736;2023-07-31T06:33:15;6.97;;;3.35;;
8819;SDS011;4446;50.876;4.736;2023-07-31T06:35:42;4.35;;;2.90;;
8819;SDS011;4446;50.876;4.736;2023-07-31T06:38:09;5.10;;;3.20;;
8819;SDS011;4446;50.876;4.736;2023-07-31T06:40:36;4.47;;;2.97;;
8819;SDS011;4446;50.876;4.736;2023-07-31T06:43:03;6.05;;;3.03;;
8819;SDS011;4446;50.876;4.736;2023-07-31T06:45:33;4.68;;;3.45;;
8819;SDS011;4446;50.876;4.736;2023-07-31T06:48:00;6.30;;;2.75;;
8819;SDS011;4446;50.876;4.736;2023-07-31T06:50:30;4.53;;;3.10;;
8819;SDS011;4446;50.876;4.736;2023-07-31T06:52:57;4.45;;;2.80;;
8819;SDS011;4446;50.876;4.736;2023-07-31T06:55:25;6.22;;;3.25;;
8819;SDS011;4446;50.876;4.736;2023-07-31T06:57:54;8.45;;;2.90;;
8819;SDS011;4446;50.876;4.736;2023-07-31T07:00:22;5.82;;;3.35;;
8819;SDS011;4446;50.876;4.736;2023-07-31T07:02:49;5.10;;;2.85;;
8819;SDS011;4446;50.876;4.736;2023-07-31T07:05:16;4.93;;;2.70;;
8819;SDS011;4446;50.876;4.736;2023-07-31T07:07:45;6.30;;;3.22;;
8819;SDS011;4446;50.876;4.736;2023-07-31T07:10:12;7.07;;;3.40;;
8819;SDS011;4446;50.876;4.736;2023-07-31T07:12:39;4.82;;;2.97;;
8819;SDS011;4446;50.876;4.736;2023-07-31T07:15:06;5.95;;;3.22;;
8819;SDS011;4446;50.876;4.736;2023-07-31T07:17:34;5.03;;;2.65;;
8819;SDS011;4446;50.876;4.736;2023-07-31T07:20:02;4.88;;;2.80;;
8819;SDS011;4446;50.876;4.736;2023-07-31T07:22:29;5.63;;;3.15;;
8819;SDS011;4446;50.876;4.736;2023-07-31T07:24:58;4.78;;;2.75;;
8819;SDS011;4446;50.876;4.736;2023-07-31T07:27:25;5.13;;;2.33;;
8819;SDS011;4446;50.876;4.736;2023-07-31T07:29:52;4.90;;;2.78;;
8819;SDS011;4446;50.876;4.736;2023-07-31T07:32:20;5.28;;;2.70;;
8819;SDS011;4446;50.876;4.736;2023-07-31T07:34:47;3.88;;;2.55;;
8819;SDS011;4446;50.876;4.736;2023-07-31T07:37:14;4.75;;;2.50;;
8819;SDS011;4446;50.876;4.736;2023-07-31T07:39:42;3.40;;;2.40;;
8819;SDS011;4446;50.876;4.736;2023-07-31T07:42:11;4.70;;;2.80;;
8819;SDS011;4446;50.876;4.736;2023-07-31T07:44:38;3.10;;;2.50;;
8819;SDS011;4446;50.876;4.736;2023-07-31T07:47:05;4.80;;;2.17;;
8819;SDS011;4446;50.876;4.736;2023-07-31T07:49:32;7.50;;;3.03;;
8819;SDS011;4446;50.876;4.736;2023-07-31T07:51:59;4.40;;;2.67;;
8819;SDS011;4446;50.876;4.736;2023-07-31T07:54:27;4.32;;;2.60;;
8819;SDS011;4446;50.876;4.736;2023-07-31T07:56:54;2.50;;;2.00;;
8819;SDS011;4446;50.876;4.736;2023-07-31T07:59:22;2.63;;;2.22;;
8819;SDS011;4446;50.876;4.736;2023-07-31T08:01:49;5.25;;;2.58;;
8819;SDS011;4446;50.876;4.736;2023-07-31T08:04:16;6.28;;;2.72;;
8819;SDS011;4446;50.876;4.736;2023-07-31T08:06:43;3.55;;;2.50;;
8819;SDS011;4446;50.876;4.736;2023-07-31T08:09:10;4.13;;;2.22;;
8819;SDS011;4446;50.876;4.736;2023-07-31T08:11:37;3.08;;;2.40;;
8819;SDS011;4446;50.876;4.736;2023-07-31T08:14:04;3.63;;;2.35;;
8819;SDS011;4446;50.876;4.736;2023-07-31T08:16:33;4.38;;;2.17;;
8819;SDS011;4446;50.876;4.736;2023-07-31T08:19:00;3.17;;;2.28;;
8819;SDS011;4446;50.876;4.736;2023-07-31T08:21:27;3.50;;;2.40;;
8819;SDS011;4446;50.876;4.736;2023-07-31T08:23:54;4.28;;;2.40;;
8819;SDS011;4446;50.876;4.736;2023-07-31T08:26:21;4.03;;;2.00;;
8819;SDS011;4446;50.876;4.736;2023-07-31T08:28:48;4.10;;;2.35;;
8819;SDS011;4446;50.876;4.736;2023-07-31T08:31:15;2.50;;;2.00;;
8819;SDS011;4446;50.876;4.736;2023-07-31T08:33:44;5.28;;;2.45;;
8819;SDS011;4446;50.876;4.736;2023-07-31T08:36:11;5.30;;;2.65;;
8819;SDS011;4446;50.876;4.736;2023-07-31T08:38:38;3.75;;;1.90;;
8819;SDS011;4446;50.876;4.736;2023-07-31T08:41:06;4.32;;;2.28;;
8819;SDS011;4446;50.876;4.736;2023-07-31T08:43:35;3.15;;;2.42;;
8819;SDS011;4446;50.876;4.736;2023-07-31T08:46:04;3.30;;;2.15;;
8819;SDS011;4446;50.876;4.736;2023-07-31T08:48:32;5.38;;;1.80;;
8819;SDS011;4446;50.876;4.736;2023-07-31T08:51:00;3.78;;;2.10;;
8819;SDS011;4446;50.876;4.736;2023-07-31T08:53:27;3.05;;;2.08;;
8819;SDS011;4446;50.876;4.736;2023-07-31T08:55:54;3.22;;;1.80;;
8819;SDS011;4446;50.876;4.736;2023-07-31T08:58:23;3.38;;;2.17;;
8819;SDS011;4446;50.876;4.736;2023-07-31T09:00:51;3.63;;;1.83;;
8819;SDS011;4446;50.876;4.736;2023-07-31T09:03:21;3.10;;;1.95;;
8819;SDS011;4446;50.876;4.736;2023-07-31T09:05:50;2.97;;;2.00;;
8819;SDS011;4446;50.876;4.736;2023-07-31T09:08:20;3.20;;;1.70;;
8819;SDS011;4446;50.876;4.736;2023-07-31T09:10:48;3.75;;;2.10;;
8819;SDS011;4446;50.876;4.736;2023-07-31T09:13:16;5.43;;;2.10;;
8819;SDS011;4446;50.876;4.736;2023-07-31T09:15:43;2.30;;;1.95;;
8819;SDS011;4446;50.876;4.736;2023-07-31T09:18:12;3.08;;;1.88;;
8819;SDS011;4446;50.876;4.736;2023-07-31T09:20:42;2.72;;;2.10;;
8819;SDS011;4446;50.876;4.736;2023-07-31T09:23:10;2.72;;;1.85;;
8819;SDS011;4446;50.876;4.736;2023-07-31T09:25:40;4.60;;;1.80;;
8819;SDS011;4446;50.876;4.736;2023-07-31T09:28:10;3.95;;;1.83;;
8819;SDS011;4446;50.876;4.736;2023-07-31T09:30:44;2.92;;;1.90;;
8819;SDS011;4446;50.876;4.736;2023-07-31T09:33:13;3.70;;;2.10;;
8819;SDS011;4446;50.876;4.736;2023-07-31T09:35:40;2.63;;;1.73;;
8819;SDS011;4446;50.876;4.736;2023-07-31T09:38:08;2.40;;;1.73;;
8819;SDS011;4446;50.876;4.736;2023-07-31T09:40:39;3.60;;;1.95;;
8819;SDS011;4446;50.876;4.736;2023-07-31T09:43:07;4.85;;;2.00;;
8819;SDS011;4446;50.876;4.736;2023-07-31T09:45:37;3.92;;;2.35;;
8819;SDS011;4446;50.876;4.736;2023-07-31T09:48:06;3.28;;;2.05;;
8819;SDS011;4446;50.876;4.736;2023-07-31T09:50:36;4.20;;;2.20;;
8819;SDS011;4446;50.876;4.736;2023-07-31T09:53:04;2.92;;;2.13;;
8819;SDS011;4446;50.876;4.736;2023-07-31T09:55:32;5.18;;;2.83;;
8819;SDS011;4446;50.876;4.736;2023-07-31T09:58:02;5.75;;;2.35;;
8819;SDS011;4446;50.876;4.736;2023-07-31T10:00:31;3.13;;;2.05;;
8819;SDS011;4446;50.876;4.736;2023-07-31T10:02:59;3.92;;;2.25;;
8819;SDS011;4446;50.876;4.736;2023-07-31T10:05:28;3.47;;;2.20;;
8819;SDS011;4446;50.876;4.736;2023-07-31T10:07:57;5.55;;;2.20;;
8819;SDS011;4446;50.876;4.736;2023-07-31T10:10:25;4.32;;;2.10;;
8819;SDS011;4446;50.876;4.736;2023-07-31T10:12:54;4.20;;;2.40;;
8819;SDS011;4446;50.876;4.736;2023-07-31T10:15:23;5.45;;;2.45;;
8819;SDS011;4446;50.876;4.736;2023-07-31T10:17:51;5.78;;;2.30;;
8819;SDS011;4446;50.876;4.736;2023-07-31T10:20:20;5.55;;;2.75;;
8819;SDS011;4446;50.876;4.736;2023-07-31T10:22:47;4.32;;;2.78;;
8819;SDS011;4446;50.876;4.736;2023-07-31T10:25:15;5.15;;;2.58;;
8819;SDS011;4446;50.876;4.736;2023-07-31T10:27:42;5.50;;;2.70;;
8819;SDS011;4446;50.876;4.736;2023-07-31T10:30:11;3.63;;;2.42;;
8819;SDS011;4446;50.876;4.736;2023-07-31T10:32:43;5.93;;;2.80;;
8819;SDS011;4446;50.876;4.736;2023-07-31T10:35:11;4.13;;;2.75;;
8819;SDS011;4446;50.876;4.736;2023-07-31T10:37:38;2.88;;;2.25;;
8819;SDS011;4446;50.876;4.736;2023-07-31T10:40:10;3.83;;;2.65;;
8819;SDS011;4446;50.876;4.736;2023-07-31T10:42:38;4.50;;;2.67;;
8819;SDS011;4446;50.876;4.736;2023-07-31T10:45:13;6.40;;;2.85;;
8819;SDS011;4446;50.876;4.736;2023-07-31T10:47:43;4.13;;;2.83;;
8819;SDS011;4446;50.876;4.736;2023-07-31T10:50:13;3.75;;;2.58;;
8819;SDS011;4446;50.876;4.736;2023-07-31T10:52:45;5.38;;;2.47;;
8819;SDS011;4446;50.876;4.736;2023-07-31T10:55:14;4.22;;;2.55;;
8819;SDS011;4446;50.876;4.736;2023-07-31T10:57:52;5.13;;;2.60;;
8819;SDS011;4446;50.876;4.736;2023-07-31T11:00:21;3.85;;;2.60;;
8819;SDS011;4446;50.876;4.736;2023-07-31T11:03:02;4.55;;;2.60;;
8819;SDS011;4446;50.876;4.736;2023-07-31T11:05:50;4.57;;;2.80;;
8819;SDS011;4446;50.876;4.736;2023-07-31T11:08:20;4.13;;;2.90;;
8819;SDS011;4446;50.876;4.736;2023-07-31T11:10:49;4.47;;;2.70;;
8819;SDS011;4446;50.876;4.736;2023-07-31T11:13:19;3.70;;;2.38;;
8819;SDS011;4446;50.876;4.736;2023-07-31T11:15:46;6.47;;;3.13;;
8819;SDS011;4446;50.876;4.736;2023-07-31T11:18:14;3.85;;;2.78;;
8819;SDS011;4446;50.876;4.736;2023-07-31T11:20:42;4.45;;;3.35;;
8819;SDS011;4446;50.876;4.736;2023-07-31T11:23:09;4.32;;;2.55;;
8819;SDS011;4446;50.876;4.736;2023-07-31T11:25:37;4.82;;;3.00;;
8819;SDS011;4446;50.876;4.736;2023-07-31T11:28:08;5.65;;;2.67;;
8819;SDS011;4446;50.876;4.736;2023-07-31T11:30:35;4.45;;;2.75;;
8819;SDS011;4446;50.876;4.736;2023-07-31T11:33:03;5.47;;;2.90;;
8819;SDS011;4446;50.876;4.736;2023-07-31T11:35:33;4.95;;;3.13;;
8819;SDS011;4446;50.876;4.736;2023-07-31T11:38:01;4.43;;;2.78;;
8819;SDS011;4446;50.876;4.736;2023-07-31T11:40:29;5.43;;;2.67;;
8819;SDS011;4446;50.876;4.736;2023-07-31T11:42:56;4.38;;;2.70;;
8819;SDS011;4446;50.876;4.736;2023-07-31T11:45:27;4.38;;;2.72;;
8819;SDS011;4446;50.876;4.736;2023-07-31T11:47:54;4.00;;;2.70;;
8819;SDS011;4446;50.876;4.736;2023-07-31T11:50:22;5.43;;;2.60;;
8819;SDS011;4446;50.876;4.736;2023-07-31T11:52:54;4.30;;;2.40;;
8819;SDS011;4446;50.876;4.736;2023-07-31T11:55:23;10.60;;;3.63;;
8819;SDS011;4446;50.876;4.736;2023-07-31T11:57:51;4.55;;;3.00;;
8819;SDS011;4446;50.876;4.736;2023-07-31T12:00:19;4.03;;;2.83;;
8819;SDS011;4446;50.876;4.736;2023-07-31T12:02:47;6.30;;;2.80;;
8819;SDS011;4446;50.876;4.736;2023-07-31T12:05:15;5.43;;;3.20;;
8819;SDS011;4446;50.876;4.736;2023-07-31T12:07:45;3.53;;;2.72;;
8819;SDS011;4446;50.876;4.736;2023-07-31T12:10:25;3.72;;;2.55;;
8819;SDS011;4446;50.876;4.736;2023-07-31T12:12:58;4.88;;;2.70;;
8819;SDS011;4446;50.876;4.736;2023-07-31T12:15:33;4.65;;;2.97;;
8819;SDS011;4446;50.876;4.736;2023-07-31T12:18:03;5.07;;;2.63;;
8819;SDS011;4446;50.876;4.736;2023-07-31T12:20:32;4.03;;;2.55;;
8819;SDS011;4446;50.876;4.736;2023-07-31T12:22:59;3.55;;;2.47;;
8819;SDS011;4446;50.876;4.736;2023-07-31T12:25:32;4.47;;;2.63;;
8819;SDS011;4446;50.876;4.736;2023-07-31T12:28:05;3.95;;;2.80;;
8819;SDS011;4446;50.876;4.736;2023-07-31T12:30:36;5.03;;;2.80;;
8819;SDS011;4446;50.876;4.736;2023-07-31T12:33:04;5.43;;;2.60;;
8819;SDS011;4446;50.876;4.736;2023-07-31T12:35:36;4.03;;;2.78;;
8819;SDS011;4446;50.876;4.736;2023-07-31T12:38:04;3.58;;;2.50;;
8819;SDS011;4446;50.876;4.736;2023-07-31T12:40:32;3.88;;;2.65;;
8819;SDS011;4446;50.876;4.736;2023-07-31T12:43:03;4.60;;;2.60;;
8819;SDS011;4446;50.876;4.736;2023-07-31T12:45:30;5.88;;;3.30;;
8819;SDS011;4446;50.876;4.736;2023-07-31T12:47:57;6.15;;;2.67;;
8819;SDS011;4446;50.876;4.736;2023-07-31T12:50:24;4.40;;;2.90;;
8819;SDS011;4446;50.876;4.736;2023-07-31T12:52:52;6.03;;;3.05;;
8819;SDS011;4446;50.876;4.736;2023-07-31T12:55:19;5.28;;;3.17;;
8819;SDS011;4446;50.876;4.736;2023-07-31T12:57:48;5.90;;;3.10;;
8819;SDS011;4446;50.876;4.736;2023-07-31T13:00:16;6.30;;;3.00;;
8819;SDS011;4446;50.876;4.736;2023-07-31T13:02:43;5.53;;;2.65;;
8819;SDS011;4446;50.876;4.736;2023-07-31T13:05:10;6.00;;;3.33;;
8819;SDS011;4446;50.876;4.736;2023-07-31T13:07:38;4.80;;;3.28;;
8819;SDS011;4446;50.876;4.736;2023-07-31T13:10:05;7.78;;;3.10;;
8819;SDS011;4446;50.876;4.736;2023-07-31T13:12:32;5.15;;;3.17;;
8819;SDS011;4446;50.876;4.736;2023-07-31T13:15:01;4.60;;;3.00;;
8819;SDS011;4446;50.876;4.736;2023-07-31T13:17:29;5.80;;;3.58;;
8819;SDS011;4446;50.876;4.736;2023-07-31T13:19:56;5.28;;;3.20;;
8819;SDS011;4446;50.876;4.736;2023-07-31T13:22:23;5.10;;;3.22;;
8819;SDS011;4446;50.876;4.736;2023-07-31T13:24:50;4.90;;;2.95;;
8819;SDS011;4446;50.876;4.736;2023-07-31T13:27:17;5.28;;;2.83;;
8819;SDS011;4446;50.876;4.736;2023-07-31T13:29:46;3.00;;;2.53;;
8819;SDS011;4446;50.876;4.736;2023-07-31T13:32:15;6.25;;;2.95;;
8819;SDS011;4446;50.876;4.736;2023-07-31T13:34:42;5.43;;;2.65;;
8819;SDS011;4446;50.876;4.736;2023-07-31T13:37:09;5.13;;;2.60;;
8819;SDS011;4446;50.876;4.736;2023-07-31T13:39:37;3.85;;;2.60;;
8819;SDS011;4446;50.876;4.736;2023-07-31T13:42:04;4.97;;;2.40;;
8819;SDS011;4446;50.876;4.736;2023-07-31T13:44:33;4.85;;;2.50;;
8819;SDS011;4446;50.876;4.736;2023-07-31T13:47:00;3.15;;;2.35;;
8819;SDS011;4446;50.876;4.736;2023-07-31T13:49:29;3.08;;;2.08;;
8819;SDS011;4446;50.876;4.736;2023-07-31T13:51:56;3.20;;;2.40;;
8819;SDS011;4446;50.876;4.736;2023-07-31T13:54:24;5.63;;;2.40;;
8819;SDS011;4446;50.876;4.736;2023-07-31T13:56:52;3.47;;;2.50;;
8819;SDS011;4446;50.876;4.736;2023-07-31T13:59:19;4.47;;;2.40;;
8819;SDS011;4446;50.876;4.736;2023-07-31T14:01:46;4.47;;;2.55;;
8819;SDS011;4446;50.876;4.736;2023-07-31T14:04:14;5.30;;;2.90;;
8819;SDS011;4446;50.876;4.736;2023-07-31T14:06:44;5.95;;;2.38;;
8819;SDS011;4446;50.876;4.736;2023-07-31T14:09:13;3.17;;;2.30;;
8819;SDS011;4446;50.876;4.736;2023-07-31T14:11:40;4.00;;;2.28;;
8819;SDS011;4446;50.876;4.736;2023-07-31T14:14:08;2.85;;;2.10;;
8819;SDS011;4446;50.876;4.736;2023-07-31T14:16:35;4.40;;;2.72;;
8819;SDS011;4446;50.876;4.736;2023-07-31T14:19:03;5.07;;;2.45;;
8819;SDS011;4446;50.876;4.736;2023-07-31T14:21:30;3.28;;;2.25;;
8819;SDS011;4446;50.876;4.736;2023-07-31T14:23:59;2.90;;;2.00;;
8819;SDS011;4446;50.876;4.736;2023-07-31T14:26:26;3.85;;;2.38;;
8819;SDS011;4446;50.876;4.736;2023-07-31T14:28:53;3.13;;;2.10;;
8819;SDS011;4446;50.876;4.736;2023-07-31T14:31:20;2.95;;;1.98;;
8819;SDS011;4446;50.876;4.736;2023-07-31T14:33:47;2.67;;;2.08;;
8819;SDS011;4446;50.876;4.736;2023-07-31T14:36:14;3.30;;;2.08;;
8819;SDS011;4446;50.876;4.736;2023-07-31T14:38:41;5.15;;;2.30;;
8819;SDS011;4446;50.876;4.736;2023-07-31T14:41:09;4.00;;;2.10;;
8819;SDS011;4446;50.876;4.736;2023-07-31T14:43:36;3.45;;;2.33;;
8819;SDS011;4446;50.876;4.736;2023-07-31T14:46:04;3.53;;;2.05;;
8819;SDS011;4446;50.876;4.736;2023-07-31T14:48:31;3.30;;;2.05;;
8819;SDS011;4446;50.876;4.736;2023-07-31T14:50:58;3.08;;;2.20;;
8819;SDS011;4446;50.876;4.736;2023-07-31T14:53:26;2.70;;;2.05;;
8819;SDS011;4446;50.876;4.736;2023-07-31T14:55:53;3.28;;;2.15;;
8819;SDS011;4446;50.876;4.736;2023-07-31T14:58:21;3.78;;;2.17;;
8819;SDS011;4446;50.876;4.736;2023-07-31T15:00:49;2.35;;;1.90;;
8819;SDS011;4446;50.876;4.736;2023-07-31T15:03:16;2.65;;;1.77;;
8819;SDS011;4446;50.876;4.736;2023-07-31T15:05:43;3.05;;;2.00;;
8819;SDS011;4446;50.876;4.736;2023-07-31T15:08:10;3.45;;;2.00;;
8819;SDS011;4446;50.876;4.736;2023-07-31T15:10:37;3.63;;;1.52;;
8819;SDS011;4446;50.876;4.736;2023-07-31T15:13:04;4.50;;;2.17;;
8819;SDS011;4446;50.876;4.736;2023-07-31T15:15:32;3.13;;;2.00;;
8819;SDS011;4446;50.876;4.736;2023-07-31T15:17:59;2.58;;;1.90;;
8819;SDS011;4446;50.876;4.736;2023-07-31T15:20:26;1.95;;;1.58;;
8819;SDS011;4446;50.876;4.736;2023-07-31T15:22:54;2.97;;;2.00;;